Leonardo — IAZA — position and weather

sailwx.info

Track history (hours):
 
Tides and Currents Weather Stations Pressure Air Temp Water Temp Dewpoint Dewpoint Depression Visibility Wind Speed Wind Dir Waves Ship Positions

Leonardo

Last reported at 2014-Nov-23 01:32 UTC. Time now 2014-Nov-23 02:10 UTC.
Position N 44°06' E 009°52'.

Length 28 m; draft 2.7 m.

MMSI: 247155800.

Date/timePositionNaut miles runAvg speedWind from/ knotsBaromVisibWave heightAir tempDewpointWater temp
2014-Nov-23 01:32N 44°06' E 009°52'0 0.0
2014-Nov-23 00:32N 44°06' E 009°52'0 0.0
2014-Nov-22 23:32N 44°06' E 009°52'0 0.0
2014-Nov-22 22:31N 44°06' E 009°52'0 0.0
2014-Nov-22 21:31N 44°06' E 009°52'0 0.0
2014-Nov-22 20:33N 44°06' E 009°52'0 0.0
2014-Nov-22 19:33N 44°06' E 009°52'0 0.0
2014-Nov-22 18:32N 44°06' E 009°52'0 0.0
2014-Nov-22 17:29N 44°06' E 009°52'0 0.0
2014-Nov-22 16:32N 44°06' E 009°52'0 0.0
2014-Nov-22 15:31N 44°06' E 009°52'0 0.0
2014-Nov-22 14:28N 44°06' E 009°52'0 0.0
2014-Nov-22 13:33N 44°06' E 009°52'0 0.0
2014-Nov-22 12:33N 44°06' E 009°52'0 0.0
2014-Nov-22 11:32N 44°06' E 009°52'0 0.0
2014-Nov-22 10:32N 44°06' E 009°52'0 0.0
2014-Nov-22 09:32N 44°06' E 009°52'0 0.0
2014-Nov-22 08:31N 44°06' E 009°52'0 0.0
2014-Nov-22 07:31N 44°06' E 009°52'0 0.0
2014-Nov-22 06:33N 44°06' E 009°52'0 0.0
2014-Nov-22 05:33N 44°06' E 009°52'0 0.0
2014-Nov-22 04:32N 44°06' E 009°52'0 0.0
2014-Nov-22 03:32N 44°06' E 009°52'0 0.0
2014-Nov-22 02:32N 44°06' E 009°52'0 0.0
2014-Nov-22 01:31N 44°06' E 009°52'0 0.0
2014-Nov-22 00:31N 44°06' E 009°52'0 0.0
2014-Nov-21 23:33N 44°06' E 009°52'0 0.0
2014-Nov-21 22:33N 44°06' E 009°52'0 0.0
2014-Nov-21 21:32N 44°06' E 009°52'0 0.0
2014-Nov-21 20:32N 44°06' E 009°52'0 0.0
2014-Nov-21 19:31N 44°06' E 009°52'0 0.0
2014-Nov-21 18:31N 44°06' E 009°52'0 0.0
2014-Nov-21 17:31N 44°06' E 009°52'0 0.0
2014-Nov-21 16:34N 44°06' E 009°52'3 3.2
2014-Nov-21 15:34N 44°03' E 009°52'6 6.2
2014-Nov-21 14:33N 43°57' E 009°48'0 0.0
2014-Nov-21 13:33N 43°57' E 009°48'0 0.5
2014-Nov-21 12:33N 43°57' E 009°47'0 0.4
2014-Nov-21 11:34N 43°57' E 009°47'0 0.4
2014-Nov-21 10:34N 43°57' E 009°48'1 0.5
2014-Nov-21 09:34N 43°57' E 009°48'0 0.1
2014-Nov-21 08:34N 43°57' E 009°48'7 7.0
2014-Nov-21 07:34N 44°04' E 009°51'2 1.9
2014-Nov-21 06:31N 44°06' E 009°52'0 0.0
2014-Nov-21 05:31N 44°06' E 009°52'0 0.0
2014-Nov-21 04:33N 44°06' E 009°52'0 0.0
2014-Nov-21 03:33N 44°06' E 009°52'0 0.0
2014-Nov-21 02:32N 44°06' E 009°52'0 0.0
2014-Nov-21 01:32N 44°06' E 009°52'0 0.0
2014-Nov-21 00:31N 44°06' E 009°52'0 0.0
2014-Nov-20 23:31N 44°06' E 009°52'0 0.0
2014-Nov-20 22:31N 44°06' E 009°52'0 0.0
2014-Nov-20 21:33N 44°06' E 009°52'0 0.0
2014-Nov-20 20:30N 44°06' E 009°52'0 0.0
2014-Nov-20 19:32N 44°06' E 009°52'0 0.0
2014-Nov-20 18:32N 44°06' E 009°52'0 0.0
2014-Nov-20 17:31N 44°06' E 009°52'2 2.3
2014-Nov-20 16:34N 44°04' E 009°52'5 4.7
2014-Nov-20 15:33N 44°01' E 009°58'3 3.1
2014-Nov-20 14:33N 44°03' E 009°55'1 1.3
2014-Nov-20 13:33N 44°04' E 009°53'1 0.6
2014-Nov-20 12:33N 44°04' E 009°54'3 3.2
2014-Nov-20 11:34N 44°02' E 009°57'1 0.6
2014-Nov-20 10:33N 44°01' E 009°58'1 1.0
2014-Nov-20 09:34N 44°02' E 009°57'3 3.0
2014-Nov-20 08:34N 44°04' E 009°54'2 1.9
2014-Nov-20 07:34N 44°04' E 009°51'2 1.5
2014-Nov-20 06:32N 44°06' E 009°52'0 0.0
2014-Nov-20 05:31N 44°06' E 009°52'0 0.0
2014-Nov-20 04:31N 44°06' E 009°52'0 0.0
2014-Nov-20 03:28N 44°06' E 009°52'0 0.0
2014-Nov-20 02:33N 44°06' E 009°52'0 0.0
2014-Nov-20 01:33N 44°06' E 009°52'0 0.0
2014-Nov-20 00:32N 44°06' E 009°52'0 0.0
2014-Nov-19 23:32N 44°06' E 009°52'0 0.0
2014-Nov-19 22:31N 44°06' E 009°52'0 0.0
2014-Nov-19 21:31N 44°06' E 009°52'0 0.0
2014-Nov-19 20:34N 44°06' E 009°52'0 0.0
2014-Nov-19 19:33N 44°06' E 009°52'0 0.0
2014-Nov-19 18:33N 44°06' E 009°52'0 0.0
2014-Nov-19 17:32N 44°06' E 009°52'0 0.0
2014-Nov-19 16:32N 44°06' E 009°52'0 0.0
2014-Nov-19 15:31N 44°06' E 009°52'0 0.0
2014-Nov-19 14:31N 44°06' E 009°52'0 0.0
2014-Nov-19 13:30N 44°06' E 009°52'0 0.0
2014-Nov-19 12:33N 44°06' E 009°52'0 0.2
2014-Nov-19 11:34N 44°06' E 009°52'3 2.5
2014-Nov-19 10:33N 44°04' E 009°54'1 0.5
2014-Nov-19 09:34N 44°04' E 009°54'2 1.9
2014-Nov-19 08:33N 44°06' E 009°52'0 0.0
2014-Nov-19 07:32N 44°06' E 009°52'0 0.0
2014-Nov-19 06:32N 44°06' E 009°52'0 0.0
2014-Nov-19 05:31N 44°06' E 009°52'0 0.0
2014-Nov-19 04:31N 44°06' E 009°52'0 0.0
2014-Nov-19 03:33N 44°06' E 009°52'0 0.0
2014-Nov-19 02:30N 44°06' E 009°52'0 0.0
2014-Nov-19 01:33N 44°06' E 009°52'0 0.0
2014-Nov-19 00:32N 44°06' E 009°52'0 0.0
2014-Nov-18 23:32N 44°06' E 009°52'0 0.0
2014-Nov-18 22:31N 44°06' E 009°52'0 0.0
2014-Nov-18 21:31N 44°06' E 009°52'0 0.0
2014-Nov-18 20:33N 44°06' E 009°52'0 0.0
2014-Nov-18 19:33N 44°06' E 009°52'0 0.0
2014-Nov-18 18:33N 44°06' E 009°52'0 0.0
2014-Nov-18 17:32N 44°06' E 009°52'0 0.0
2014-Nov-18 16:32N 44°06' E 009°52'0 0.0
2014-Nov-18 15:31N 44°06' E 009°52'0 0.0
2014-Nov-18 14:31N 44°06' E 009°52'0 0.0
2014-Nov-18 13:33N 44°06' E 009°52'0 0.0
2014-Nov-18 12:33N 44°06' E 009°52'0 0.0
2014-Nov-18 11:33N 44°06' E 009°52'0 0.0
2014-Nov-18 10:29N 44°06' E 009°52'0 0.0
2014-Nov-18 09:32N 44°06' E 009°52'0 0.0
2014-Nov-18 08:31N 44°06' E 009°52'0 0.0
2014-Nov-18 07:31N 44°06' E 009°52'0 0.0
2014-Nov-18 06:33N 44°06' E 009°52'0 0.0
2014-Nov-18 05:33N 44°06' E 009°52'0 0.0
2014-Nov-18 04:33N 44°06' E 009°52'0 0.0
2014-Nov-18 03:32N 44°06' E 009°52'0 0.0
2014-Nov-18 02:32N 44°06' E 009°52'0 0.0
2014-Nov-18 01:31N 44°06' E 009°52'0 0.0
2014-Nov-18 00:31N 44°06' E 009°52'0 0.0
2014-Nov-17 23:33N 44°06' E 009°52'0 0.0
2014-Nov-17 22:30N 44°06' E 009°52'0 0.0
2014-Nov-17 21:32N 44°06' E 009°52'0 0.0
2014-Nov-17 20:32N 44°06' E 009°52'0 0.0
2014-Nov-17 19:32N 44°06' E 009°52'0 0.0
2014-Nov-17 18:31N 44°06' E 009°52'0 0.0
2014-Nov-17 17:31N 44°06' E 009°52'0 0.0
2014-Nov-17 16:33N 44°06' E 009°52'0 0.0
2014-Nov-17 15:33N 44°06' E 009°52'0 0.2
2014-Nov-17 14:33N 44°06' E 009°52'0 0.1
2014-Nov-17 13:33N 44°06' E 009°52'0 0.3
2014-Nov-17 12:33N 44°06' E 009°51'1 0.6
2014-Nov-17 11:33N 44°05' E 009°51'0 0.4
2014-Nov-17 10:33N 44°05' E 009°51'1 0.6
2014-Nov-17 09:32N 44°06' E 009°52'0 0.0
2014-Nov-17 08:31N 44°06' E 009°52'0 0.0
2014-Nov-17 07:31N 44°06' E 009°52'0 0.0
2014-Nov-17 06:33N 44°06' E 009°52'0 0.0
2014-Nov-17 05:33N 44°06' E 009°52'0 0.0
2014-Nov-17 04:33N 44°06' E 009°52'0 0.0
2014-Nov-17 03:29N 44°06' E 009°52'0 0.0
2014-Nov-17 02:32N 44°06' E 009°52'0 0.0
2014-Nov-17 01:31N 44°06' E 009°52'0 0.0
2014-Nov-17 00:31N 44°06' E 009°52'0 0.0
2014-Nov-16 23:33N 44°06' E 009°52'0 0.0
2014-Nov-16 22:30N 44°06' E 009°52'0 0.0
2014-Nov-16 21:32N 44°06' E 009°52'0 0.0
2014-Nov-16 20:32N 44°06' E 009°52'0 0.0
2014-Nov-16 19:29N 44°06' E 009°52'0 0.0
2014-Nov-16 18:31N 44°06' E 009°52'0 0.0
2014-Nov-16 17:31N 44°06' E 009°52'0 0.0
2014-Nov-16 16:33N 44°06' E 009°52'0 0.0
2014-Nov-16 15:33N 44°06' E 009°52'0 0.0
2014-Nov-16 14:29N 44°06' E 009°52'0 0.0
2014-Nov-16 13:32N 44°06' E 009°52'0 0.0
2014-Nov-16 12:32N 44°06' E 009°52'0 0.0
2014-Nov-16 11:31N 44°06' E 009°52'0 0.0
2014-Nov-16 10:31N 44°06' E 009°52'0 0.0
2014-Nov-16 09:33N 44°06' E 009°52'0 0.0
2014-Nov-16 08:33N 44°06' E 009°52'0 0.0
2014-Nov-16 07:32N 44°06' E 009°52'0 0.0
2014-Nov-16 06:32N 44°06' E 009°52'0 0.0
2014-Nov-16 05:32N 44°06' E 009°52'0 0.0
2014-Nov-16 04:31N 44°06' E 009°52'0 0.0
2014-Nov-16 03:31N 44°06' E 009°52'0 0.0
2014-Nov-16 02:33N 44°06' E 009°52'0 0.0
2014-Nov-16 01:33N 44°06' E 009°52'0 0.0
2014-Nov-16 00:32N 44°06' E 009°52'0 0.0
2014-Nov-15 23:32N 44°06' E 009°52'0 0.0
2014-Nov-15 22:32N 44°06' E 009°52'0 0.0
2014-Nov-15 21:31N 44°06' E 009°52'0 0.0
2014-Nov-15 20:31N 44°06' E 009°52'0 0.0
2014-Nov-15 19:33N 44°06' E 009°52'0 0.0
2014-Nov-15 18:33N 44°06' E 009°52'0 0.0
2014-Nov-15 17:32N 44°06' E 009°52'0 0.0
2014-Nov-15 16:32N 44°06' E 009°52'0 0.0
2014-Nov-15 15:31N 44°06' E 009°52'0 0.0
2014-Nov-15 14:31N 44°06' E 009°52'0 0.0
2014-Nov-15 13:31N 44°06' E 009°52'0 0.0
2014-Nov-15 12:33N 44°06' E 009°52'0 0.0
2014-Nov-15 11:33N 44°06' E 009°52'0 0.0
2014-Nov-15 10:32N 44°06' E 009°52'0 0.0
2014-Nov-15 09:32N 44°06' E 009°52'0 0.0
2014-Nov-15 08:31N 44°06' E 009°52'0 0.0
2014-Nov-15 07:31N 44°06' E 009°52'0 0.0
2014-Nov-15 06:31N 44°06' E 009°52'0 0.0
2014-Nov-15 05:33N 44°06' E 009°52'0 0.0
2014-Nov-15 04:30N 44°06' E 009°52'0 0.0
2014-Nov-15 03:32N 44°06' E 009°52'0 0.0
2014-Nov-15 02:32N 44°06' E 009°52'0 0.0
2014-Nov-15 01:31N 44°06' E 009°52'0 0.0
2014-Nov-15 00:31N 44°06' E 009°52'0 0.0
2014-Nov-14 23:34N 44°06' E 009°52'0 0.0
2014-Nov-14 22:33N 44°06' E 009°52'0 0.0
2014-Nov-14 21:33N 44°06' E 009°52'0 0.0
2014-Nov-14 20:29N 44°06' E 009°52'0 0.0
2014-Nov-14 19:26N 44°06' E 009°52'0 0.0
2014-Nov-14 18:31N 44°06' E 009°52'0 0.0
2014-Nov-14 17:31N 44°06' E 009°52'0 0.0
2014-Nov-14 16:33N 44°06' E 009°52'0 0.0
2014-Nov-14 15:33N 44°06' E 009°52'0 0.0
2014-Nov-14 14:33N 44°06' E 009°52'0 0.0
2014-Nov-14 12:32N 44°06' E 009°52'0 0.0
2014-Nov-14 11:31N 44°06' E 009°52'0 0.0
2014-Nov-14 10:31N 44°06' E 009°52'0 0.0
2014-Nov-14 09:33N 44°06' E 009°52'0 0.0
2014-Nov-14 08:33N 44°06' E 009°52'0 0.0
2014-Nov-14 07:33N 44°06' E 009°52'0 0.0
2014-Nov-14 06:32N 44°06' E 009°52'0 0.0
2014-Nov-14 05:32N 44°06' E 009°52'0 0.0
2014-Nov-14 04:31N 44°06' E 009°52'0 0.0
2014-Nov-14 03:31N 44°06' E 009°52'0 0.0
2014-Nov-14 02:33N 44°06' E 009°52'0 0.0
2014-Nov-14 01:33N 44°06' E 009°52'0 0.0
2014-Nov-14 00:33N 44°06' E 009°52'0 0.0
2014-Nov-13 23:32N 44°06' E 009°52'0 0.0
2014-Nov-13 22:32N 44°06' E 009°52'0 0.0
2014-Nov-13 21:31N 44°06' E 009°52'0 0.0
2014-Nov-13 20:31N 44°06' E 009°52'0 0.0
2014-Nov-13 19:33N 44°06' E 009°52'0 0.0
2014-Nov-13 18:33N 44°06' E 009°52'0 0.0
2014-Nov-13 17:33N 44°06' E 009°52'0 0.0
2014-Nov-13 16:32N 44°06' E 009°52'0 0.0
2014-Nov-13 15:32N 44°06' E 009°52'0 0.0
2014-Nov-13 14:31N 44°06' E 009°52'0 0.0
2014-Nov-13 13:31N 44°06' E 009°52'0 0.0
2014-Nov-13 12:33N 44°06' E 009°52'0 0.0
2014-Nov-13 11:33N 44°06' E 009°52'0 0.0
2014-Nov-13 10:32N 44°06' E 009°52'0 0.0
2014-Nov-13 09:32N 44°06' E 009°52'0 0.0
2014-Nov-13 08:32N 44°06' E 009°52'0 0.0
2014-Nov-13 07:31N 44°06' E 009°52'0 0.0
2014-Nov-13 06:31N 44°06' E 009°52'0 0.0
2014-Nov-13 05:33N 44°06' E 009°52'0 0.0
2014-Nov-13 04:33N 44°06' E 009°52'0 0.0
2014-Nov-13 03:32N 44°06' E 009°52'0 0.0
2014-Nov-13 02:32N 44°06' E 009°52'  
Track history (hours):
 
Tides and Currents Weather Stations Pressure Air Temp Water Temp Dewpoint Dewpoint Depression Visibility Wind Speed Wind Dir Waves Ship Positions

Leonardo

Last reported at 2014-Nov-23 01:32 UTC. Time now 2014-Nov-23 02:10 UTC.
Position N 44°06' E 009°52'.

Length 28 m; draft 2.7 m.

MMSI: 247155800.

Date/timePositionNaut miles runAvg speedWind from/ knotsBaromVisibWave heightAir tempDewpointWater temp
2014-Nov-23 01:32N 44°06' E 009°52'0 0.0
2014-Nov-23 00:32N 44°06' E 009°52'0 0.0
2014-Nov-22 23:32N 44°06' E 009°52'0 0.0
2014-Nov-22 22:31N 44°06' E 009°52'0 0.0
2014-Nov-22 21:31N 44°06' E 009°52'0 0.0
2014-Nov-22 20:33N 44°06' E 009°52'0 0.0
2014-Nov-22 19:33N 44°06' E 009°52'0 0.0
2014-Nov-22 18:32N 44°06' E 009°52'0 0.0
2014-Nov-22 17:29N 44°06' E 009°52'0 0.0
2014-Nov-22 16:32N 44°06' E 009°52'0 0.0
2014-Nov-22 15:31N 44°06' E 009°52'0 0.0
2014-Nov-22 14:28N 44°06' E 009°52'0 0.0
2014-Nov-22 13:33N 44°06' E 009°52'0 0.0
2014-Nov-22 12:33N 44°06' E 009°52'0 0.0
2014-Nov-22 11:32N 44°06' E 009°52'0 0.0
2014-Nov-22 10:32N 44°06' E 009°52'0 0.0
2014-Nov-22 09:32N 44°06' E 009°52'0 0.0
2014-Nov-22 08:31N 44°06' E 009°52'0 0.0
2014-Nov-22 07:31N 44°06' E 009°52'0 0.0
2014-Nov-22 06:33N 44°06' E 009°52'0 0.0
2014-Nov-22 05:33N 44°06' E 009°52'0 0.0
2014-Nov-22 04:32N 44°06' E 009°52'0 0.0
2014-Nov-22 03:32N 44°06' E 009°52'0 0.0
2014-Nov-22 02:32N 44°06' E 009°52'0 0.0
2014-Nov-22 01:31N 44°06' E 009°52'0 0.0
2014-Nov-22 00:31N 44°06' E 009°52'0 0.0
2014-Nov-21 23:33N 44°06' E 009°52'0 0.0
2014-Nov-21 22:33N 44°06' E 009°52'0 0.0
2014-Nov-21 21:32N 44°06' E 009°52'0 0.0
2014-Nov-21 20:32N 44°06' E 009°52'0 0.0
2014-Nov-21 19:31N 44°06' E 009°52'0 0.0
2014-Nov-21 18:31N 44°06' E 009°52'0 0.0
2014-Nov-21 17:31N 44°06' E 009°52'0 0.0
2014-Nov-21 16:34N 44°06' E 009°52'3 3.2
2014-Nov-21 15:34N 44°03' E 009°52'6 6.2
2014-Nov-21 14:33N 43°57' E 009°48'0 0.0
2014-Nov-21 13:33N 43°57' E 009°48'0 0.5
2014-Nov-21 12:33N 43°57' E 009°47'0 0.4
2014-Nov-21 11:34N 43°57' E 009°47'0 0.4
2014-Nov-21 10:34N 43°57' E 009°48'1 0.5
2014-Nov-21 09:34N 43°57' E 009°48'0 0.1
2014-Nov-21 08:34N 43°57' E 009°48'7 7.0
2014-Nov-21 07:34N 44°04' E 009°51'2 1.9
2014-Nov-21 06:31N 44°06' E 009°52'0 0.0
2014-Nov-21 05:31N 44°06' E 009°52'0 0.0
2014-Nov-21 04:33N 44°06' E 009°52'0 0.0
2014-Nov-21 03:33N 44°06' E 009°52'0 0.0
2014-Nov-21 02:32N 44°06' E 009°52'0 0.0
2014-Nov-21 01:32N 44°06' E 009°52'0 0.0
2014-Nov-21 00:31N 44°06' E 009°52'0 0.0
2014-Nov-20 23:31N 44°06' E 009°52'0 0.0
2014-Nov-20 22:31N 44°06' E 009°52'0 0.0
2014-Nov-20 21:33N 44°06' E 009°52'0 0.0
2014-Nov-20 20:30N 44°06' E 009°52'0 0.0
2014-Nov-20 19:32N 44°06' E 009°52'0 0.0
2014-Nov-20 18:32N 44°06' E 009°52'0 0.0
2014-Nov-20 17:31N 44°06' E 009°52'2 2.3
2014-Nov-20 16:34N 44°04' E 009°52'5 4.7
2014-Nov-20 15:33N 44°01' E 009°58'3 3.1
2014-Nov-20 14:33N 44°03' E 009°55'1 1.3
2014-Nov-20 13:33N 44°04' E 009°53'1 0.6
2014-Nov-20 12:33N 44°04' E 009°54'3 3.2
2014-Nov-20 11:34N 44°02' E 009°57'1 0.6
2014-Nov-20 10:33N 44°01' E 009°58'1 1.0
2014-Nov-20 09:34N 44°02' E 009°57'3 3.0
2014-Nov-20 08:34N 44°04' E 009°54'2 1.9
2014-Nov-20 07:34N 44°04' E 009°51'2 1.5
2014-Nov-20 06:32N 44°06' E 009°52'0 0.0
2014-Nov-20 05:31N 44°06' E 009°52'0 0.0
2014-Nov-20 04:31N 44°06' E 009°52'0 0.0
2014-Nov-20 03:28N 44°06' E 009°52'0 0.0
2014-Nov-20 02:33N 44°06' E 009°52'0 0.0
2014-Nov-20 01:33N 44°06' E 009°52'0 0.0
2014-Nov-20 00:32N 44°06' E 009°52'0 0.0
2014-Nov-19 23:32N 44°06' E 009°52'0 0.0
2014-Nov-19 22:31N 44°06' E 009°52'0 0.0
2014-Nov-19 21:31N 44°06' E 009°52'0 0.0
2014-Nov-19 20:34N 44°06' E 009°52'0 0.0
2014-Nov-19 19:33N 44°06' E 009°52'0 0.0
2014-Nov-19 18:33N 44°06' E 009°52'0 0.0
2014-Nov-19 17:32N 44°06' E 009°52'0 0.0
2014-Nov-19 16:32N 44°06' E 009°52'0 0.0
2014-Nov-19 15:31N 44°06' E 009°52'0 0.0
2014-Nov-19 14:31N 44°06' E 009°52'0 0.0
2014-Nov-19 13:30N 44°06' E 009°52'0 0.0
2014-Nov-19 12:33N 44°06' E 009°52'0 0.2
2014-Nov-19 11:34N 44°06' E 009°52'3 2.5
2014-Nov-19 10:33N 44°04' E 009°54'1 0.5
2014-Nov-19 09:34N 44°04' E 009°54'2 1.9
2014-Nov-19 08:33N 44°06' E 009°52'0 0.0
2014-Nov-19 07:32N 44°06' E 009°52'0 0.0
2014-Nov-19 06:32N 44°06' E 009°52'0 0.0
2014-Nov-19 05:31N 44°06' E 009°52'0 0.0
2014-Nov-19 04:31N 44°06' E 009°52'0 0.0
2014-Nov-19 03:33N 44°06' E 009°52'0 0.0
2014-Nov-19 02:30N 44°06' E 009°52'0 0.0
2014-Nov-19 01:33N 44°06' E 009°52'0 0.0
2014-Nov-19 00:32N 44°06' E 009°52'0 0.0
2014-Nov-18 23:32N 44°06' E 009°52'0 0.0
2014-Nov-18 22:31N 44°06' E 009°52'0 0.0
2014-Nov-18 21:31N 44°06' E 009°52'0 0.0
2014-Nov-18 20:33N 44°06' E 009°52'0 0.0
2014-Nov-18 19:33N 44°06' E 009°52'0 0.0
2014-Nov-18 18:33N 44°06' E 009°52'0 0.0
2014-Nov-18 17:32N 44°06' E 009°52'0 0.0
2014-Nov-18 16:32N 44°06' E 009°52'0 0.0
2014-Nov-18 15:31N 44°06' E 009°52'0 0.0
2014-Nov-18 14:31N 44°06' E 009°52'0 0.0
2014-Nov-18 13:33N 44°06' E 009°52'0 0.0
2014-Nov-18 12:33N 44°06' E 009°52'0 0.0
2014-Nov-18 11:33N 44°06' E 009°52'0 0.0
2014-Nov-18 10:29N 44°06' E 009°52'0 0.0
2014-Nov-18 09:32N 44°06' E 009°52'0 0.0
2014-Nov-18 08:31N 44°06' E 009°52'0 0.0
2014-Nov-18 07:31N 44°06' E 009°52'0 0.0
2014-Nov-18 06:33N 44°06' E 009°52'0 0.0
2014-Nov-18 05:33N 44°06' E 009°52'0 0.0
2014-Nov-18 04:33N 44°06' E 009°52'0 0.0
2014-Nov-18 03:32N 44°06' E 009°52'0 0.0
2014-Nov-18 02:32N 44°06' E 009°52'0 0.0
2014-Nov-18 01:31N 44°06' E 009°52'0 0.0
2014-Nov-18 00:31N 44°06' E 009°52'0 0.0
2014-Nov-17 23:33N 44°06' E 009°52'0 0.0
2014-Nov-17 22:30N 44°06' E 009°52'0 0.0
2014-Nov-17 21:32N 44°06' E 009°52'0 0.0
2014-Nov-17 20:32N 44°06' E 009°52'0 0.0
2014-Nov-17 19:32N 44°06' E 009°52'0 0.0
2014-Nov-17 18:31N 44°06' E 009°52'0 0.0
2014-Nov-17 17:31N 44°06' E 009°52'0 0.0
2014-Nov-17 16:33N 44°06' E 009°52'0 0.0
2014-Nov-17 15:33N 44°06' E 009°52'0 0.2
2014-Nov-17 14:33N 44°06' E 009°52'0 0.1
2014-Nov-17 13:33N 44°06' E 009°52'0 0.3
2014-Nov-17 12:33N 44°06' E 009°51'1 0.6
2014-Nov-17 11:33N 44°05' E 009°51'0 0.4
2014-Nov-17 10:33N 44°05' E 009°51'1 0.6
2014-Nov-17 09:32N 44°06' E 009°52'0 0.0
2014-Nov-17 08:31N 44°06' E 009°52'0 0.0
2014-Nov-17 07:31N 44°06' E 009°52'0 0.0
2014-Nov-17 06:33N 44°06' E 009°52'0 0.0
2014-Nov-17 05:33N 44°06' E 009°52'0 0.0
2014-Nov-17 04:33N 44°06' E 009°52'0 0.0
2014-Nov-17 03:29N 44°06' E 009°52'0 0.0
2014-Nov-17 02:32N 44°06' E 009°52'0 0.0
2014-Nov-17 01:31N 44°06' E 009°52'0 0.0
2014-Nov-17 00:31N 44°06' E 009°52'0 0.0
2014-Nov-16 23:33N 44°06' E 009°52'0 0.0
2014-Nov-16 22:30N 44°06' E 009°52'0 0.0
2014-Nov-16 21:32N 44°06' E 009°52'0 0.0
2014-Nov-16 20:32N 44°06' E 009°52'0 0.0
2014-Nov-16 19:29N 44°06' E 009°52'0 0.0
2014-Nov-16 18:31N 44°06' E 009°52'0 0.0
2014-Nov-16 17:31N 44°06' E 009°52'0 0.0
2014-Nov-16 16:33N 44°06' E 009°52'0 0.0
2014-Nov-16 15:33N 44°06' E 009°52'0 0.0
2014-Nov-16 14:29N 44°06' E 009°52'0 0.0
2014-Nov-16 13:32N 44°06' E 009°52'0 0.0
2014-Nov-16 12:32N 44°06' E 009°52'0 0.0
2014-Nov-16 11:31N 44°06' E 009°52'0 0.0
2014-Nov-16 10:31N 44°06' E 009°52'0 0.0
2014-Nov-16 09:33N 44°06' E 009°52'0 0.0
2014-Nov-16 08:33N 44°06' E 009°52'0 0.0
2014-Nov-16 07:32N 44°06' E 009°52'0 0.0
2014-Nov-16 06:32N 44°06' E 009°52'0 0.0
2014-Nov-16 05:32N 44°06' E 009°52'0 0.0
2014-Nov-16 04:31N 44°06' E 009°52'0 0.0
2014-Nov-16 03:31N 44°06' E 009°52'0 0.0
2014-Nov-16 02:33N 44°06' E 009°52'0 0.0
2014-Nov-16 01:33N 44°06' E 009°52'0 0.0
2014-Nov-16 00:32N 44°06' E 009°52'0 0.0
2014-Nov-15 23:32N 44°06' E 009°52'0 0.0
2014-Nov-15 22:32N 44°06' E 009°52'0 0.0
2014-Nov-15 21:31N 44°06' E 009°52'0 0.0
2014-Nov-15 20:31N 44°06' E 009°52'0 0.0
2014-Nov-15 19:33N 44°06' E 009°52'0 0.0
2014-Nov-15 18:33N 44°06' E 009°52'0 0.0
2014-Nov-15 17:32N 44°06' E 009°52'0 0.0
2014-Nov-15 16:32N 44°06' E 009°52'0 0.0
2014-Nov-15 15:31N 44°06' E 009°52'0 0.0
2014-Nov-15 14:31N 44°06' E 009°52'0 0.0
2014-Nov-15 13:31N 44°06' E 009°52'0 0.0
2014-Nov-15 12:33N 44°06' E 009°52'0 0.0
2014-Nov-15 11:33N 44°06' E 009°52'0 0.0
2014-Nov-15 10:32N 44°06' E 009°52'0 0.0
2014-Nov-15 09:32N 44°06' E 009°52'0 0.0
2014-Nov-15 08:31N 44°06' E 009°52'0 0.0
2014-Nov-15 07:31N 44°06' E 009°52'0 0.0
2014-Nov-15 06:31N 44°06' E 009°52'0 0.0
2014-Nov-15 05:33N 44°06' E 009°52'0 0.0
2014-Nov-15 04:30N 44°06' E 009°52'0 0.0
2014-Nov-15 03:32N 44°06' E 009°52'0 0.0
2014-Nov-15 02:32N 44°06' E 009°52'0 0.0
2014-Nov-15 01:31N 44°06' E 009°52'0 0.0
2014-Nov-15 00:31N 44°06' E 009°52'0 0.0
2014-Nov-14 23:34N 44°06' E 009°52'0 0.0
2014-Nov-14 22:33N 44°06' E 009°52'0 0.0
2014-Nov-14 21:33N 44°06' E 009°52'0 0.0
2014-Nov-14 20:29N 44°06' E 009°52'0 0.0
2014-Nov-14 19:26N 44°06' E 009°52'0 0.0
2014-Nov-14 18:31N 44°06' E 009°52'0 0.0
2014-Nov-14 17:31N 44°06' E 009°52'0 0.0
2014-Nov-14 16:33N 44°06' E 009°52'0 0.0
2014-Nov-14 15:33N 44°06' E 009°52'0 0.0
2014-Nov-14 14:33N 44°06' E 009°52'0 0.0
2014-Nov-14 12:32N 44°06' E 009°52'0 0.0
2014-Nov-14 11:31N 44°06' E 009°52'0 0.0
2014-Nov-14 10:31N 44°06' E 009°52'0 0.0
2014-Nov-14 09:33N 44°06' E 009°52'0 0.0
2014-Nov-14 08:33N 44°06' E 009°52'0 0.0
2014-Nov-14 07:33N 44°06' E 009°52'0 0.0
2014-Nov-14 06:32N 44°06' E 009°52'0 0.0
2014-Nov-14 05:32N 44°06' E 009°52'0 0.0
2014-Nov-14 04:31N 44°06' E 009°52'0 0.0
2014-Nov-14 03:31N 44°06' E 009°52'0 0.0
2014-Nov-14 02:33N 44°06' E 009°52'0 0.0
2014-Nov-14 01:33N 44°06' E 009°52'0 0.0
2014-Nov-14 00:33N 44°06' E 009°52'0 0.0
2014-Nov-13 23:32N 44°06' E 009°52'0 0.0
2014-Nov-13 22:32N 44°06' E 009°52'0 0.0
2014-Nov-13 21:31N 44°06' E 009°52'0 0.0
2014-Nov-13 20:31N 44°06' E 009°52'0 0.0
2014-Nov-13 19:33N 44°06' E 009°52'0 0.0
2014-Nov-13 18:33N 44°06' E 009°52'0 0.0
2014-Nov-13 17:33N 44°06' E 009°52'0 0.0
2014-Nov-13 16:32N 44°06' E 009°52'0 0.0
2014-Nov-13 15:32N 44°06' E 009°52'0 0.0
2014-Nov-13 14:31N 44°06' E 009°52'0 0.0
2014-Nov-13 13:31N 44°06' E 009°52'0 0.0
2014-Nov-13 12:33N 44°06' E 009°52'0 0.0
2014-Nov-13 11:33N 44°06' E 009°52'0 0.0
2014-Nov-13 10:32N 44°06' E 009°52'0 0.0
2014-Nov-13 09:32N 44°06' E 009°52'0 0.0
2014-Nov-13 08:32N 44°06' E 009°52'0 0.0
2014-Nov-13 07:31N 44°06' E 009°52'0 0.0
2014-Nov-13 06:31N 44°06' E 009°52'0 0.0
2014-Nov-13 05:33N 44°06' E 009°52'0 0.0
2014-Nov-13 04:33N 44°06' E 009°52'0 0.0
2014-Nov-13 03:32N 44°06' E 009°52'0 0.0
2014-Nov-13 02:32N 44°06' E 009°52'  

Dump ship's entire track history